createdAt,value
2023-05-13T00:00:28.754Z,10.70
2023-05-13T00:02:56.759Z,10.60
2023-05-13T00:05:24.653Z,10.60
2023-05-13T00:07:52.575Z,10.60
2023-05-13T00:10:22.364Z,10.70
2023-05-13T00:12:50.437Z,10.70
2023-05-13T00:15:18.327Z,10.60
2023-05-13T00:17:46.292Z,10.50
2023-05-13T00:20:14.216Z,10.50
2023-05-13T00:22:42.103Z,10.40
2023-05-13T00:25:10.890Z,10.30
2023-05-13T00:27:40.481Z,10.30
2023-05-13T00:30:10.157Z,10.20
2023-05-13T00:32:38.053Z,10.20
2023-05-13T00:35:06.755Z,10.10
2023-05-13T00:37:34.613Z,10.10
2023-05-13T00:40:02.641Z,10.10
2023-05-13T00:42:30.543Z,10.00
2023-05-13T00:44:59.737Z,10.00
2023-05-13T00:47:27.643Z,10.00
2023-05-13T00:49:55.626Z,9.90
2023-05-13T00:52:23.622Z,9.90
2023-05-13T00:54:51.458Z,9.90
2023-05-13T00:57:21.135Z,9.80
2023-05-13T00:59:49.146Z,9.70
2023-05-13T01:02:28.428Z,9.70
2023-05-13T01:05:14.795Z,9.60
2023-05-13T01:07:50.885Z,9.60
2023-05-13T01:10:24.877Z,9.60
2023-05-13T01:12:57.556Z,9.60
2023-05-13T01:15:27.212Z,9.60
2023-05-13T01:18:01.223Z,9.50
2023-05-13T01:20:31.425Z,9.40
2023-05-13T01:23:00.642Z,9.30
2023-05-13T01:25:28.628Z,9.30
2023-05-13T01:27:56.845Z,9.20
2023-05-13T01:30:25.327Z,9.20
2023-05-13T01:32:54.601Z,9.20
2023-05-13T01:35:24.192Z,9.20
2023-05-13T01:37:52.630Z,9.20
2023-05-13T01:40:32.372Z,9.20
2023-05-13T01:43:00.971Z,9.20
2023-05-13T01:45:30.082Z,9.10
2023-05-13T01:47:58.030Z,9.10
2023-05-13T01:50:26.272Z,9.20
2023-05-13T01:52:54.204Z,9.20
2023-05-13T01:55:23.435Z,9.20
2023-05-13T01:57:51.245Z,9.20
2023-05-13T02:00:19.968Z,9.20
2023-05-13T02:02:48.222Z,9.20
2023-05-13T02:05:16.819Z,9.10
2023-05-13T02:07:44.835Z,9.20
2023-05-13T02:10:13.095Z,9.20
2023-05-13T02:12:42.273Z,9.20
2023-05-13T02:15:11.203Z,9.30
2023-05-13T02:17:39.312Z,9.30
2023-05-13T02:20:09.114Z,9.40
2023-05-13T02:22:37.141Z,9.30
2023-05-13T02:25:05.674Z,9.30
2023-05-13T02:27:33.578Z,9.20
2023-05-13T02:30:02.859Z,9.30
2023-05-13T02:32:30.816Z,9.30
2023-05-13T02:34:58.705Z,9.40
2023-05-13T02:37:26.682Z,9.50
2023-05-13T02:39:54.606Z,9.50
2023-05-13T02:42:22.464Z,9.50
2023-05-13T02:44:50.544Z,9.50
2023-05-13T02:47:19.816Z,9.50
2023-05-13T02:49:47.776Z,9.40
2023-05-13T02:52:15.631Z,9.20
2023-05-13T02:54:43.557Z,9.20
2023-05-13T02:57:11.462Z,9.10
2023-05-13T02:59:39.276Z,9.10
2023-05-13T03:02:07.194Z,9.20
2023-05-13T03:04:36.400Z,9.20
2023-05-13T03:07:04.313Z,9.20
2023-05-13T03:09:32.170Z,9.30
2023-05-13T03:12:00.266Z,9.20
2023-05-13T03:14:28.180Z,9.10
2023-05-13T03:16:56.130Z,9.20
2023-05-13T03:19:24.629Z,9.10
2023-05-13T03:21:54.158Z,9.10
2023-05-13T03:24:22.058Z,9.10
2023-05-13T03:26:50.723Z,9.00
2023-05-13T03:29:18.641Z,9.10
2023-05-13T03:31:47.061Z,9.10
2023-05-13T03:34:15.022Z,9.00
2023-05-13T03:36:42.880Z,9.10
2023-05-13T03:39:12.225Z,9.10
2023-05-13T03:41:40.226Z,9.10
2023-05-13T03:44:08.105Z,9.10
2023-05-13T03:46:36.099Z,9.10
2023-05-13T03:49:04.214Z,9.10
2023-05-13T03:51:34.227Z,9.00
2023-05-13T03:54:02.339Z,8.80
2023-05-13T03:56:31.564Z,8.80
2023-05-13T03:58:59.452Z,8.80
2023-05-13T04:01:27.430Z,8.70
2023-05-13T04:03:55.346Z,8.70
2023-05-13T04:06:23.251Z,8.70
2023-05-13T04:08:52.695Z,8.70
2023-05-13T04:11:20.785Z,8.70
2023-05-13T04:13:50.069Z,8.60
2023-05-13T04:16:18.327Z,8.60
2023-05-13T04:18:46.438Z,8.70
2023-05-13T04:21:14.409Z,8.70
2023-05-13T04:23:43.051Z,8.70
2023-05-13T04:26:10.994Z,8.60
2023-05-13T04:28:38.879Z,8.70
2023-05-13T04:31:08.187Z,8.80
2023-05-13T04:33:36.101Z,8.80
2023-05-13T04:36:04.041Z,8.80
2023-05-13T04:38:32.470Z,8.80
2023-05-13T04:41:00.377Z,8.90
2023-05-13T04:43:28.730Z,9.00
2023-05-13T04:45:56.764Z,9.10
2023-05-13T04:48:28.011Z,9.20
2023-05-13T04:50:57.709Z,9.30
2023-05-13T04:53:25.679Z,9.40
2023-05-13T04:56:00.438Z,9.40
2023-05-13T04:58:28.516Z,9.50
2023-05-13T05:00:57.332Z,9.50
2023-05-13T05:03:26.822Z,9.60
2023-05-13T05:05:54.828Z,9.60
2023-05-13T05:08:22.710Z,9.70
2023-05-13T05:10:50.685Z,9.70
2023-05-13T05:13:18.593Z,9.80
2023-05-13T05:15:46.511Z,9.90
2023-05-13T05:18:14.515Z,10.00
2023-05-13T05:20:43.869Z,10.10
2023-05-13T05:23:11.816Z,10.10
2023-05-13T05:25:39.764Z,10.30
2023-05-13T05:28:07.803Z,10.40
2023-05-13T05:30:39.671Z,10.50
2023-05-13T05:33:08.289Z,10.70
2023-05-13T05:35:37.319Z,10.90
2023-05-13T05:38:07.902Z,11.00
2023-05-13T05:40:37.338Z,11.20
2023-05-13T05:43:05.236Z,11.40
2023-05-13T05:45:33.119Z,11.70
2023-05-13T05:48:01.178Z,11.90
2023-05-13T05:50:29.389Z,12.20
2023-05-13T05:52:57.614Z,12.40
2023-05-13T05:55:27.715Z,12.60
2023-05-13T05:57:55.834Z,12.70
2023-05-13T06:00:24.095Z,12.90
2023-05-13T06:02:52.238Z,12.90
2023-05-13T06:05:20.323Z,13.10
2023-05-13T06:07:48.228Z,13.20
2023-05-13T06:10:16.389Z,13.40
2023-05-13T06:12:45.671Z,13.70
2023-05-13T06:15:13.588Z,13.80
2023-05-13T06:17:41.566Z,14.10
2023-05-13T06:20:10.056Z,14.40
2023-05-13T06:22:38.074Z,14.70
2023-05-13T06:25:06.902Z,15.00
2023-05-13T06:27:34.973Z,15.20
2023-05-13T06:30:04.692Z,15.60
2023-05-13T06:32:32.698Z,15.80
2023-05-13T06:35:00.675Z,16.20
2023-05-13T06:37:28.645Z,16.60
2023-05-13T06:39:56.635Z,16.70
2023-05-13T06:42:24.571Z,17.00
2023-05-13T06:44:52.565Z,17.00
2023-05-13T06:47:23.871Z,17.10
2023-05-13T06:49:51.962Z,17.00
2023-05-13T06:52:19.908Z,17.00
2023-05-13T06:54:48.308Z,17.40
2023-05-13T06:57:16.206Z,17.60
2023-05-13T06:59:46.178Z,17.90
2023-05-13T07:02:14.386Z,18.10
2023-05-13T07:04:43.601Z,18.30
2023-05-13T07:07:11.457Z,18.20
2023-05-13T07:09:39.383Z,18.20
2023-05-13T07:12:10.188Z,18.30
2023-05-13T07:14:38.688Z,18.50
2023-05-13T07:17:06.678Z,18.70
2023-05-13T07:19:34.622Z,18.70
2023-05-13T07:22:03.868Z,18.80
2023-05-13T07:24:31.746Z,19.10
2023-05-13T07:26:59.623Z,19.20
2023-05-13T07:29:27.706Z,19.30
2023-05-13T07:31:55.660Z,19.10
2023-05-13T07:34:23.571Z,19.00
2023-05-13T07:36:51.438Z,19.10
2023-05-13T07:39:20.777Z,19.10
2023-05-13T07:41:48.657Z,19.00
2023-05-13T07:44:16.591Z,19.30
2023-05-13T07:46:44.536Z,19.50
2023-05-13T07:49:12.464Z,19.80
2023-05-13T07:51:40.406Z,20.10
2023-05-13T07:54:08.540Z,20.10
2023-05-13T07:56:38.521Z,20.40
2023-05-13T07:59:06.507Z,20.60
2023-05-13T08:01:34.441Z,20.70
2023-05-13T08:04:02.423Z,20.40
2023-05-13T08:06:31.369Z,20.20
2023-05-13T08:08:59.305Z,20.20
2023-05-13T08:11:27.318Z,20.40
2023-05-13T08:13:56.719Z,20.20
2023-05-13T08:16:24.654Z,20.20
2023-05-13T08:18:52.605Z,20.20
2023-05-13T08:21:20.549Z,20.00
2023-05-13T08:23:48.426Z,20.40
2023-05-13T08:26:16.305Z,20.50
2023-05-13T08:28:44.221Z,20.60
2023-05-13T08:31:14.624Z,20.80
2023-05-13T08:33:43.063Z,20.90
2023-05-13T08:36:11.036Z,21.30
2023-05-13T08:38:39.026Z,21.30
2023-05-13T08:41:07.810Z,21.50
2023-05-13T08:43:38.832Z,21.50
2023-05-13T08:46:10.467Z,21.70
2023-05-13T08:48:40.558Z,21.80
2023-05-13T08:51:09.096Z,21.90
2023-05-13T08:53:39.553Z,21.60
2023-05-13T08:56:09.946Z,21.60
2023-05-13T08:58:37.882Z,21.50
2023-05-13T09:01:07.253Z,21.20
2023-05-13T09:03:36.928Z,21.50
2023-05-13T09:06:06.655Z,21.60
2023-05-13T09:08:35.077Z,21.40
2023-05-13T09:11:03.385Z,21.40
2023-05-13T09:13:31.300Z,21.10
2023-05-13T09:15:59.401Z,21.20
2023-05-13T09:18:31.485Z,21.20
2023-05-13T09:20:59.545Z,21.20
2023-05-13T09:23:28.812Z,21.30
2023-05-13T09:25:56.739Z,21.60
2023-05-13T09:28:24.672Z,21.80
2023-05-13T09:30:56.202Z,21.90
2023-05-13T09:33:30.391Z,21.90
2023-05-13T09:35:58.390Z,22.10
2023-05-13T09:38:31.499Z,22.00
2023-05-13T09:41:01.433Z,22.10
2023-05-13T09:43:32.747Z,21.80
2023-05-13T09:46:04.140Z,21.60
2023-05-13T09:48:34.330Z,21.90
2023-05-13T09:51:02.437Z,21.70
2023-05-13T09:53:32.769Z,21.80
2023-05-13T09:56:01.722Z,21.80
2023-05-13T09:58:30.912Z,22.00
2023-05-13T10:00:59.636Z,21.90
2023-05-13T10:03:29.956Z,20.80
2023-05-13T10:06:02.304Z,20.00
2023-05-13T10:08:33.081Z,19.70
2023-05-13T10:11:01.186Z,19.30
2023-05-13T10:13:31.840Z,19.00
2023-05-13T10:16:00.603Z,18.80
2023-05-13T10:18:29.614Z,18.50
2023-05-13T10:20:57.973Z,18.70
2023-05-13T10:23:25.892Z,19.20
2023-05-13T10:25:56.424Z,19.30
2023-05-13T10:28:26.443Z,19.20
2023-05-13T10:30:54.521Z,18.90
2023-05-13T10:33:22.841Z,18.80
2023-05-13T10:36:01.493Z,18.70
2023-05-13T10:38:44.903Z,18.40
2023-05-13T10:41:35.917Z,18.20
2023-05-13T10:44:05.353Z,17.90
2023-05-13T10:46:39.307Z,17.60
2023-05-13T10:49:14.715Z,17.40
2023-05-13T10:51:47.137Z,17.20
2023-05-13T10:54:20.171Z,17.10
2023-05-13T10:56:58.317Z,16.70
2023-05-13T10:59:30.320Z,16.30
2023-05-13T11:01:58.476Z,15.80
2023-05-13T11:04:26.393Z,15.60
2023-05-13T11:06:54.407Z,15.50
2023-05-13T11:09:32.084Z,15.50
2023-05-13T11:12:01.855Z,15.50
2023-05-13T11:14:32.348Z,15.60
2023-05-13T11:17:10.339Z,15.80
2023-05-13T11:19:40.156Z,15.90
2023-05-13T11:22:11.396Z,16.00
2023-05-13T11:24:39.723Z,16.10
2023-05-13T11:27:16.756Z,16.20
2023-05-13T11:29:50.675Z,16.30
2023-05-13T11:32:53.495Z,16.40
2023-05-13T11:35:21.882Z,16.40
2023-05-13T11:37:50.173Z,16.50
2023-05-13T11:40:23.805Z,16.40
2023-05-13T11:42:52.313Z,16.30
2023-05-13T11:45:24.193Z,16.20
2023-05-13T11:47:53.914Z,16.20
2023-05-13T11:50:22.325Z,16.20
2023-05-13T11:52:53.560Z,16.30
2023-05-13T11:55:28.533Z,16.40
2023-05-13T11:57:56.640Z,16.50
2023-05-13T12:00:27.177Z,16.50
2023-05-13T12:02:57.325Z,16.60
2023-05-13T12:05:26.490Z,16.70
2023-05-13T12:07:58.289Z,16.70
2023-05-13T12:10:27.325Z,16.80
2023-05-13T12:12:55.961Z,17.00
2023-05-13T12:15:24.481Z,17.20
2023-05-13T12:17:53.351Z,17.40
2023-05-13T12:20:23.268Z,17.60
2023-05-13T12:22:53.523Z,17.80
2023-05-13T12:25:38.879Z,17.90
2023-05-13T12:28:11.875Z,18.00
2023-05-13T12:30:41.997Z,17.70
2023-05-13T12:33:15.887Z,17.30
2023-05-13T12:35:46.068Z,16.90
2023-05-13T12:38:17.680Z,16.50
2023-05-13T12:40:46.561Z,16.40
2023-05-13T12:43:14.663Z,16.30
2023-05-13T12:45:45.210Z,16.10
2023-05-13T12:48:14.490Z,16.10
2023-05-13T12:50:42.405Z,16.10
2023-05-13T12:53:11.627Z,16.20
2023-05-13T12:55:40.283Z,16.30
2023-05-13T12:58:11.315Z,16.40
2023-05-13T13:00:39.347Z,16.60
2023-05-13T13:03:08.080Z,16.60
2023-05-13T13:05:36.454Z,16.70
2023-05-13T13:08:06.024Z,16.80
2023-05-13T13:10:35.295Z,16.80
2023-05-13T13:13:03.325Z,16.80
2023-05-13T13:15:31.466Z,16.70
2023-05-13T13:17:59.382Z,16.80
2023-05-13T13:20:27.364Z,16.80
2023-05-13T13:22:55.427Z,16.80
2023-05-13T13:25:23.705Z,16.90
2023-05-13T13:27:53.167Z,17.00
2023-05-13T13:30:21.250Z,17.00
2023-05-13T13:32:49.197Z,17.10
2023-05-13T13:35:17.204Z,17.20
2023-05-13T13:37:45.154Z,17.20
2023-05-13T13:40:14.233Z,17.20
2023-05-13T13:42:44.586Z,17.20
2023-05-13T13:45:15.177Z,17.30
2023-05-13T13:47:43.242Z,17.40
2023-05-13T13:50:12.289Z,17.40
2023-05-13T13:52:40.374Z,17.40
2023-05-13T13:55:09.033Z,17.40
2023-05-13T13:57:36.954Z,17.50
2023-05-13T14:00:05.956Z,17.70
2023-05-13T14:02:35.285Z,17.60
2023-05-13T14:05:03.246Z,17.60
2023-05-13T14:07:31.143Z,17.50
2023-05-13T14:10:01.021Z,17.50
2023-05-13T14:12:29.391Z,17.50
2023-05-13T14:14:57.335Z,17.60
2023-05-13T14:17:25.601Z,17.50
2023-05-13T14:19:55.682Z,17.40
2023-05-13T14:22:24.122Z,17.40
2023-05-13T14:24:52.736Z,17.40
2023-05-13T14:27:21.572Z,17.50
2023-05-13T14:29:50.076Z,17.50
2023-05-13T14:32:18.030Z,17.60
2023-05-13T14:34:46.186Z,17.60
2023-05-13T14:37:15.568Z,17.50
2023-05-13T14:39:43.480Z,17.50
2023-05-13T14:42:12.252Z,17.50
2023-05-13T14:44:41.440Z,17.60
2023-05-13T14:47:09.893Z,17.70
2023-05-13T14:49:37.948Z,17.70
2023-05-13T14:52:06.303Z,17.60
2023-05-13T14:54:37.793Z,17.60
2023-05-13T14:57:07.476Z,17.60
2023-05-13T14:59:35.544Z,17.50
2023-05-13T15:02:04.450Z,17.60
2023-05-13T15:04:32.432Z,17.60
2023-05-13T15:07:00.414Z,17.70
2023-05-13T15:09:28.284Z,17.80
2023-05-13T15:11:57.597Z,17.90
2023-05-13T15:14:26.273Z,18.10
2023-05-13T15:16:54.415Z,18.00
2023-05-13T15:19:22.379Z,17.80
2023-05-13T15:21:50.391Z,17.80
2023-05-13T15:24:18.329Z,17.70
2023-05-13T15:26:46.238Z,17.60
2023-05-13T15:29:16.554Z,17.60
2023-05-13T15:31:44.447Z,17.60
2023-05-13T15:34:12.327Z,17.60
2023-05-13T15:36:40.231Z,17.60
2023-05-13T15:39:08.396Z,17.50
2023-05-13T15:41:36.852Z,17.40
2023-05-13T15:44:04.866Z,17.40
2023-05-13T15:46:34.568Z,17.50
2023-05-13T15:49:03.101Z,17.40
2023-05-13T15:51:32.063Z,17.20
2023-05-13T15:54:00.625Z,17.10
2023-05-13T15:56:28.568Z,17.00
2023-05-13T15:58:56.460Z,16.90
2023-05-13T16:01:24.472Z,16.90
2023-05-13T16:03:53.796Z,16.90
2023-05-13T16:06:21.684Z,17.00
2023-05-13T16:08:49.634Z,17.00
2023-05-13T16:11:17.502Z,17.00
2023-05-13T16:13:45.620Z,16.90
2023-05-13T16:16:13.509Z,16.90
2023-05-13T16:18:42.954Z,16.90
2023-05-13T16:21:12.339Z,16.80
2023-05-13T16:23:40.317Z,16.80
2023-05-13T16:26:08.353Z,16.70
2023-05-13T16:28:36.541Z,16.70
2023-05-13T16:31:04.439Z,16.60
2023-05-13T16:33:33.745Z,16.50
2023-05-13T16:36:01.623Z,16.50
2023-05-13T16:38:31.022Z,16.40
2023-05-13T16:41:01.535Z,16.40
2023-05-13T16:43:29.517Z,16.30
2023-05-13T16:45:57.494Z,16.30
2023-05-13T16:48:25.486Z,16.30
2023-05-13T16:50:53.524Z,16.30
2023-05-13T16:53:22.411Z,16.20
2023-05-13T16:55:51.741Z,16.20
2023-05-13T16:58:19.620Z,16.20
2023-05-13T17:00:47.539Z,16.10
2023-05-13T17:03:15.665Z,16.00
2023-05-13T17:05:44.152Z,16.00
2023-05-13T17:08:12.190Z,15.90
2023-05-13T17:10:40.144Z,15.80
2023-05-13T17:13:09.668Z,15.80
2023-05-13T17:15:37.672Z,15.80
2023-05-13T17:18:05.654Z,15.80
2023-05-13T17:20:33.602Z,15.80
2023-05-13T17:23:01.566Z,15.80
2023-05-13T17:25:29.486Z,15.70
2023-05-13T17:27:57.465Z,15.70
2023-05-13T17:30:26.752Z,15.70
2023-05-13T17:32:55.255Z,15.60
2023-05-13T17:35:23.248Z,15.50
2023-05-13T17:37:51.237Z,15.50
2023-05-13T17:40:19.135Z,15.50
2023-05-13T17:42:47.044Z,15.40
2023-05-13T17:45:15.083Z,15.50
2023-05-13T17:47:44.416Z,15.40
2023-05-13T17:50:14.377Z,15.40
2023-05-13T17:52:42.369Z,15.40
2023-05-13T17:55:10.743Z,15.40
2023-05-13T17:57:38.677Z,15.30
2023-05-13T18:00:07.984Z,15.30
2023-05-13T18:02:36.223Z,15.30
2023-05-13T18:05:06.385Z,15.30
2023-05-13T18:07:34.399Z,15.30
2023-05-13T18:10:02.358Z,15.30
2023-05-13T18:12:30.599Z,15.20
2023-05-13T18:14:58.495Z,15.20
2023-05-13T18:17:26.509Z,15.20
2023-05-13T18:19:54.585Z,15.10
2023-05-13T18:22:23.863Z,15.00
2023-05-13T18:24:51.887Z,15.00
2023-05-13T18:27:19.793Z,15.00
2023-05-13T18:29:47.841Z,15.00
2023-05-13T18:32:15.808Z,14.90
2023-05-13T18:34:43.684Z,14.80
2023-05-13T18:37:11.566Z,14.80
2023-05-13T18:39:40.841Z,14.60
2023-05-13T18:42:09.262Z,14.50
2023-05-13T18:44:37.150Z,14.40
2023-05-13T18:47:05.637Z,14.30
2023-05-13T18:49:33.799Z,14.20
2023-05-13T18:52:01.663Z,14.10
2023-05-13T18:54:29.541Z,14.00
2023-05-13T18:56:58.820Z,13.90
2023-05-13T18:59:26.811Z,13.80
2023-05-13T19:01:54.754Z,13.70
2023-05-13T19:04:23.186Z,13.70
2023-05-13T19:06:51.349Z,13.70
2023-05-13T19:09:19.235Z,13.70
2023-05-13T19:11:47.266Z,13.80
2023-05-13T19:14:16.627Z,13.70
2023-05-13T19:16:44.617Z,13.70
2023-05-13T19:19:12.573Z,13.60
2023-05-13T19:21:40.506Z,13.60
2023-05-13T19:24:08.666Z,13.50
2023-05-13T19:26:36.825Z,13.40
2023-05-13T19:29:04.749Z,13.30
2023-05-13T19:31:34.026Z,13.20
2023-05-13T19:34:02.263Z,13.10
2023-05-13T19:36:30.229Z,13.00
2023-05-13T19:38:58.148Z,13.00
2023-05-13T19:41:26.215Z,12.90
2023-05-13T19:43:54.070Z,12.80
2023-05-13T19:46:22.047Z,12.70
2023-05-13T19:48:51.402Z,12.70
2023-05-13T19:51:19.338Z,12.50
2023-05-13T19:53:47.256Z,12.40
2023-05-13T19:56:15.270Z,12.40
2023-05-13T19:58:43.192Z,12.40
2023-05-13T20:01:11.929Z,12.30
2023-05-13T20:03:39.942Z,12.40
2023-05-13T20:06:09.375Z,12.50
2023-05-13T20:08:37.443Z,12.30
2023-05-13T20:11:05.328Z,12.30
2023-05-13T20:13:33.223Z,12.30
2023-05-13T20:16:01.194Z,12.30
2023-05-13T20:18:29.297Z,12.30
2023-05-13T20:20:57.245Z,12.30
2023-05-13T20:23:26.555Z,12.20
2023-05-13T20:25:56.872Z,12.20
2023-05-13T20:28:25.463Z,12.20
2023-05-13T20:30:54.047Z,12.30
2023-05-13T20:33:22.042Z,12.40
2023-05-13T20:35:50.050Z,12.40
2023-05-13T20:38:18.009Z,12.50
2023-05-13T20:40:47.538Z,12.50
2023-05-13T20:43:16.753Z,12.50
2023-05-13T20:45:44.812Z,12.60
2023-05-13T20:48:13.637Z,12.60
2023-05-13T20:50:41.903Z,12.60
2023-05-13T20:53:09.771Z,12.70
2023-05-13T20:55:37.654Z,12.70
2023-05-13T20:58:06.890Z,12.70
2023-05-13T21:00:34.813Z,12.70
2023-05-13T21:03:03.397Z,12.60
2023-05-13T21:05:31.995Z,12.60
2023-05-13T21:07:59.865Z,12.60
2023-05-13T21:10:27.867Z,12.60
2023-05-13T21:12:55.712Z,12.50
2023-05-13T21:15:24.917Z,12.50
2023-05-13T21:17:52.833Z,12.50
2023-05-13T21:20:21.679Z,12.50
2023-05-13T21:22:49.790Z,12.50
2023-05-13T21:25:17.761Z,12.50
2023-05-13T21:27:45.838Z,12.60
2023-05-13T21:30:14.451Z,12.60
2023-05-13T21:32:43.709Z,12.60
2023-05-13T21:35:11.604Z,12.70
2023-05-13T21:37:39.505Z,12.70
2023-05-13T21:40:09.092Z,12.70
2023-05-13T21:42:36.992Z,12.70
2023-05-13T21:45:05.249Z,12.70
2023-05-13T21:47:33.196Z,12.70
2023-05-13T21:50:02.557Z,12.70
2023-05-13T21:52:30.515Z,12.60
2023-05-13T21:54:58.451Z,12.60
2023-05-13T21:57:26.392Z,12.50
2023-05-13T21:59:54.297Z,12.40
2023-05-13T22:02:22.713Z,12.30
2023-05-13T22:04:50.989Z,12.30
2023-05-13T22:07:20.187Z,12.10
2023-05-13T22:09:49.758Z,12.10
2023-05-13T22:12:18.555Z,11.90
2023-05-13T22:14:46.427Z,11.90
2023-05-13T22:17:14.619Z,11.90
2023-05-13T22:19:42.658Z,11.90
2023-05-13T22:22:10.661Z,11.90
2023-05-13T22:24:39.945Z,11.90
2023-05-13T22:27:07.825Z,11.90
2023-05-13T22:29:35.711Z,11.80
2023-05-13T22:32:03.817Z,11.70
2023-05-13T22:34:31.759Z,11.70
2023-05-13T22:36:59.668Z,11.60
2023-05-13T22:39:27.564Z,11.50
2023-05-13T22:41:56.826Z,11.50
2023-05-13T22:44:24.698Z,11.50
2023-05-13T22:46:54.126Z,11.50
2023-05-13T22:49:22.143Z,11.50
2023-05-13T22:51:50.129Z,11.50
2023-05-13T22:54:17.975Z,11.40
2023-05-13T22:56:45.858Z,11.40
2023-05-13T22:59:15.064Z,11.40
2023-05-13T23:01:43.113Z,11.40
2023-05-13T23:04:11.102Z,11.30
2023-05-13T23:06:39.020Z,11.20
2023-05-13T23:09:07.746Z,11.20
2023-05-13T23:11:37.202Z,11.20
2023-05-13T23:14:05.400Z,11.20
2023-05-13T23:16:34.712Z,11.20
2023-05-13T23:19:02.758Z,11.20
2023-05-13T23:21:30.734Z,11.20
2023-05-13T23:23:58.685Z,11.10
2023-05-13T23:26:26.548Z,11.10
2023-05-13T23:28:54.431Z,11.00
2023-05-13T23:31:22.415Z,11.00
2023-05-13T23:33:51.680Z,10.90
2023-05-13T23:36:19.523Z,10.70
2023-05-13T23:38:47.401Z,10.70
2023-05-13T23:41:15.306Z,10.70
2023-05-13T23:43:43.220Z,10.60
2023-05-13T23:46:11.299Z,10.60
2023-05-13T23:48:39.239Z,10.50
2023-05-13T23:51:08.688Z,10.50
2023-05-13T23:53:36.819Z,10.40
2023-05-13T23:56:05.166Z,10.40
2023-05-13T23:58:33.067Z,10.30
